Aviation Digital Data Service (ADDS)

Output produced by METARs form (2052 UTC 19 April 2014)
found at http://www.aviationweather.gov/adds/metars/
 
KDOV 191958Z AUTO 35011KT 340V040 10SM CLR 20/02 A3019 RMK AO2 SLP227 T01970021
TAF KDOV 1916/2022 01012KT 9999 BKN200 QNH3024INS 
     BECMG 2000/2001 07009KT 9999 FEW180 QNH3026INS 
     BECMG 2014/2015 08015G20KT 9999 FEW200 QNH3031INS TX15/1923Z TN05/2011Z